createdAt,value
2023-04-21T00:00:00.129Z,55.10
2023-04-21T00:01:32.047Z,54.99
2023-04-21T00:03:04.131Z,55.20
2023-04-21T00:04:36.759Z,54.76
2023-04-21T00:06:09.579Z,55.12
2023-04-21T00:07:41.777Z,54.67
2023-04-21T00:09:13.608Z,55.00
2023-04-21T00:10:45.967Z,54.83
2023-04-21T00:12:18.110Z,54.92
2023-04-21T00:13:49.650Z,55.19
2023-04-21T00:15:21.231Z,54.77
2023-04-21T00:16:52.917Z,55.01
2023-04-21T00:18:25.378Z,54.71
2023-04-21T00:19:56.903Z,54.73
2023-04-21T00:21:28.502Z,55.22
2023-04-21T00:23:00.108Z,55.38
2023-04-21T00:24:31.634Z,54.67
2023-04-21T00:26:03.241Z,55.55
2023-04-21T00:27:35.170Z,55.22
2023-04-21T00:29:06.649Z,55.09
2023-04-21T00:30:38.302Z,55.09
2023-04-21T00:32:10.248Z,55.23
2023-04-21T00:33:41.735Z,54.90
2023-04-21T00:35:13.401Z,55.26
2023-04-21T00:36:44.967Z,55.22
2023-04-21T00:38:16.521Z,55.44
2023-04-21T00:39:48.034Z,55.33
2023-04-21T00:41:19.631Z,55.00
2023-04-21T00:42:51.097Z,55.22
2023-04-21T00:44:22.567Z,55.32
2023-04-21T00:45:54.639Z,55.17
2023-04-21T00:47:26.795Z,54.78
2023-04-21T00:48:58.801Z,55.42
2023-04-21T00:50:30.267Z,55.39
2023-04-21T00:52:02.275Z,55.07
2023-04-21T00:53:33.730Z,55.19
2023-04-21T00:55:05.480Z,55.29
2023-04-21T00:56:37.132Z,55.35
2023-04-21T00:58:08.616Z,55.48
2023-04-21T00:59:40.489Z,55.02
2023-04-21T01:01:13.426Z,55.17
2023-04-21T01:02:45.783Z,55.42
2023-04-21T01:04:17.437Z,54.92
2023-04-21T01:05:49.021Z,55.37
2023-04-21T01:07:20.555Z,54.90
2023-04-21T01:08:52.512Z,55.36
2023-04-21T01:10:24.037Z,55.39
2023-04-21T01:12:03.420Z,55.19
2023-04-21T01:13:34.902Z,55.27
2023-04-21T01:15:06.916Z,55.54
2023-04-21T01:16:38.475Z,55.18
2023-04-21T01:18:10.045Z,55.25
2023-04-21T01:19:42.437Z,55.70
2023-04-21T01:21:14.458Z,55.34
2023-04-21T01:22:45.946Z,55.74
2023-04-21T01:24:17.567Z,55.66
2023-04-21T01:25:49.008Z,55.66
2023-04-21T01:27:20.586Z,55.85
2023-04-21T01:28:52.095Z,55.54
2023-04-21T01:30:23.608Z,55.39
2023-04-21T01:31:55.385Z,55.76
2023-04-21T01:33:27.434Z,55.83
2023-04-21T01:34:59.334Z,55.48
2023-04-21T01:36:31.813Z,55.76
2023-04-21T01:38:03.483Z,55.79
2023-04-21T01:39:35.032Z,55.76
2023-04-21T01:41:06.670Z,55.55
2023-04-21T01:42:38.894Z,55.12
2023-04-21T01:44:10.751Z,55.55
2023-04-21T01:45:42.566Z,55.79
2023-04-21T01:47:14.125Z,55.38
2023-04-21T01:48:45.920Z,55.59
2023-04-21T01:50:17.441Z,55.30
2023-04-21T01:51:48.887Z,55.47
2023-04-21T01:53:20.684Z,55.32
2023-04-21T01:54:52.213Z,55.52
2023-04-21T01:56:23.741Z,55.43
2023-04-21T01:57:57.753Z,55.72
2023-04-21T01:59:29.260Z,55.98
2023-04-21T02:01:00.880Z,55.83
2023-04-21T02:02:32.494Z,55.61
2023-04-21T02:04:04.542Z,55.77
2023-04-21T02:05:36.126Z,55.52
2023-04-21T02:07:07.670Z,55.39
2023-04-21T02:08:39.123Z,55.65
2023-04-21T02:10:10.997Z,55.58
2023-04-21T02:11:42.664Z,55.89
2023-04-21T02:13:14.304Z,55.82
2023-04-21T02:14:48.066Z,55.87
2023-04-21T02:16:20.755Z,55.81
2023-04-21T02:17:52.340Z,55.69
2023-04-21T02:19:24.088Z,55.65
2023-04-21T02:20:57.007Z,55.38
2023-04-21T02:22:28.613Z,55.51
2023-04-21T02:24:00.329Z,55.75
2023-04-21T02:25:31.898Z,55.57
2023-04-21T02:27:03.846Z,55.49
2023-04-21T02:28:35.595Z,55.73
2023-04-21T02:30:07.454Z,56.03
2023-04-21T02:31:54.199Z,55.90
2023-04-21T02:33:29.195Z,55.79
2023-04-21T02:35:00.925Z,55.84
2023-04-21T02:36:32.433Z,56.06
2023-04-21T02:38:07.384Z,55.91
2023-04-21T02:39:39.237Z,55.97
2023-04-21T02:41:11.154Z,56.14
2023-04-21T02:42:42.649Z,56.08
2023-04-21T02:44:14.138Z,56.13
2023-04-21T02:45:46.254Z,56.26
2023-04-21T02:47:17.738Z,56.16
2023-04-21T02:48:49.925Z,56.03
2023-04-21T02:50:21.414Z,56.28
2023-04-21T02:51:52.859Z,56.18
2023-04-21T02:53:24.450Z,56.06
2023-04-21T02:54:55.909Z,56.16
2023-04-21T02:56:27.384Z,56.05
2023-04-21T02:57:58.888Z,56.15
2023-04-21T02:59:30.417Z,56.01
2023-04-21T03:01:02.718Z,56.07
2023-04-21T03:02:34.399Z,56.13
2023-04-21T03:04:06.167Z,56.22
2023-04-21T03:05:37.882Z,55.91
2023-04-21T03:07:13.380Z,56.29
2023-04-21T03:08:44.962Z,56.16
2023-04-21T03:10:16.490Z,56.12
2023-04-21T03:11:48.537Z,56.13
2023-04-21T03:13:20.320Z,56.37
2023-04-21T03:14:52.234Z,56.22
2023-04-21T03:16:23.825Z,56.48
2023-04-21T03:17:55.713Z,56.61
2023-04-21T03:19:27.163Z,56.36
2023-04-21T03:21:01.623Z,56.69
2023-04-21T03:22:33.205Z,56.62
2023-04-21T03:24:05.642Z,56.86
2023-04-21T03:25:38.141Z,56.59
2023-04-21T03:27:11.070Z,56.46
2023-04-21T03:28:42.763Z,56.63
2023-04-21T03:30:14.335Z,56.61
2023-04-21T03:31:46.158Z,56.71
2023-04-21T03:33:17.668Z,56.27
2023-04-21T03:34:50.472Z,56.78
2023-04-21T03:36:21.985Z,56.61
2023-04-21T03:37:54.012Z,56.71
2023-04-21T03:39:25.985Z,56.33
2023-04-21T03:40:57.758Z,56.22
2023-04-21T03:42:30.263Z,55.99
2023-04-21T03:44:01.758Z,55.82
2023-04-21T03:45:35.053Z,55.97
2023-04-21T03:47:06.716Z,56.31
2023-04-21T03:48:38.168Z,56.11
2023-04-21T03:50:09.693Z,55.78
2023-04-21T03:51:41.316Z,55.80
2023-04-21T03:53:15.675Z,56.32
2023-04-21T03:54:47.195Z,56.67
2023-04-21T03:56:18.717Z,56.38
2023-04-21T03:57:50.343Z,56.29
2023-04-21T03:59:21.938Z,56.14
2023-04-21T04:00:53.939Z,56.07
2023-04-21T04:02:25.863Z,56.31
2023-04-21T04:03:57.721Z,56.88
2023-04-21T04:05:29.234Z,56.71
2023-04-21T04:07:00.771Z,56.88
2023-04-21T04:08:32.243Z,56.74
2023-04-21T04:10:03.943Z,56.64
2023-04-21T04:11:35.658Z,56.48
2023-04-21T04:13:07.167Z,56.46
2023-04-21T04:14:39.539Z,56.56
2023-04-21T04:16:11.275Z,56.47
2023-04-21T04:17:43.134Z,56.68
2023-04-21T04:19:14.682Z,56.72
2023-04-21T04:20:46.213Z,57.30
2023-04-21T04:22:17.726Z,57.36
2023-04-21T04:23:51.748Z,57.12
2023-04-21T04:25:23.540Z,57.05
2023-04-21T04:26:55.120Z,57.10
2023-04-21T04:28:26.597Z,56.82
2023-04-21T04:29:58.065Z,56.95
2023-04-21T04:31:30.503Z,56.68
2023-04-21T04:33:02.377Z,56.63
2023-04-21T04:34:37.614Z,56.48
2023-04-21T04:36:09.470Z,56.72
2023-04-21T04:37:41.386Z,56.80
2023-04-21T04:39:12.927Z,56.85
2023-04-21T04:40:44.522Z,56.53
2023-04-21T04:42:15.938Z,56.91
2023-04-21T04:43:47.665Z,56.95
2023-04-21T04:45:22.327Z,57.12
2023-04-21T04:46:56.834Z,56.97
2023-04-21T04:48:28.429Z,56.24
2023-04-21T04:49:59.928Z,56.53
2023-04-21T04:51:32.826Z,57.00
2023-04-21T04:53:04.317Z,56.79
2023-04-21T04:54:36.396Z,56.53
2023-04-21T04:56:07.903Z,56.71
2023-04-21T04:57:39.416Z,56.88
2023-04-21T04:59:11.008Z,57.31
2023-04-21T05:00:42.495Z,57.23
2023-04-21T05:02:14.189Z,57.39
2023-04-21T05:03:45.933Z,57.29
2023-04-21T05:05:17.923Z,56.75
2023-04-21T05:06:50.059Z,57.17
2023-04-21T05:08:21.580Z,57.35
2023-04-21T05:09:53.160Z,56.88
2023-04-21T05:11:24.987Z,56.69
2023-04-21T05:12:56.487Z,56.59
2023-04-21T05:14:27.975Z,56.75
2023-04-21T05:16:02.088Z,56.84
2023-04-21T05:17:34.345Z,56.82
2023-04-21T05:19:06.021Z,56.55
2023-04-21T05:20:37.577Z,56.70
2023-04-21T05:22:09.092Z,56.55
2023-04-21T05:23:40.790Z,56.84
2023-04-21T05:25:16.139Z,56.52
2023-04-21T05:26:47.840Z,56.71
2023-04-21T05:28:19.959Z,56.83
2023-04-21T05:29:51.885Z,56.91
2023-04-21T05:31:23.954Z,56.97
2023-04-21T05:32:55.757Z,56.64
2023-04-21T05:34:27.309Z,56.29
2023-04-21T05:35:58.873Z,56.43
2023-04-21T05:37:30.360Z,56.50
2023-04-21T05:39:01.900Z,56.43
2023-04-21T05:40:33.422Z,56.41
2023-04-21T05:42:05.190Z,56.18
2023-04-21T05:43:36.743Z,56.07
2023-04-21T05:45:08.238Z,55.92
2023-04-21T05:46:39.955Z,55.82
2023-04-21T05:48:13.424Z,55.54
2023-04-21T05:49:50.405Z,55.41
2023-04-21T05:51:22.011Z,55.50
2023-04-21T05:52:53.491Z,55.83
2023-04-21T05:54:25.051Z,55.80
2023-04-21T05:55:56.614Z,55.70
2023-04-21T05:57:28.069Z,55.36
2023-04-21T05:58:59.932Z,55.51
2023-04-21T06:00:31.425Z,55.40
2023-04-21T06:02:03.995Z,55.43
2023-04-21T06:03:35.965Z,55.84
2023-04-21T06:05:11.025Z,55.30
2023-04-21T06:06:44.415Z,56.24
2023-04-21T06:08:15.984Z,55.44
2023-04-21T06:09:50.288Z,55.73
2023-04-21T06:11:22.542Z,55.64
2023-04-21T06:12:54.639Z,55.24
2023-04-21T06:14:26.222Z,55.35
2023-04-21T06:15:57.817Z,55.04
2023-04-21T06:17:29.391Z,55.06
2023-04-21T06:19:01.354Z,55.11
2023-04-21T06:20:32.908Z,54.90
2023-04-21T06:22:04.457Z,54.99
2023-04-21T06:23:36.316Z,55.25
2023-04-21T06:25:07.998Z,55.10
2023-04-21T06:26:42.314Z,55.44
2023-04-21T06:28:13.823Z,55.52
2023-04-21T06:29:45.360Z,55.45
2023-04-21T06:31:16.927Z,55.16
2023-04-21T06:32:48.988Z,55.58
2023-04-21T06:34:21.771Z,55.27
2023-04-21T06:35:53.825Z,54.87
2023-04-21T06:37:25.456Z,54.92
2023-04-21T06:38:56.977Z,55.02
2023-04-21T06:40:28.422Z,55.02
2023-04-21T06:42:00.025Z,55.13
2023-04-21T06:43:31.687Z,54.87
2023-04-21T06:45:03.653Z,54.73
2023-04-21T06:46:35.312Z,54.75
2023-04-21T06:48:07.014Z,54.86
2023-04-21T06:49:38.835Z,54.46
2023-04-21T06:51:10.402Z,54.33
2023-04-21T06:52:41.891Z,54.30
2023-04-21T06:54:13.508Z,54.43
2023-04-21T06:55:45.135Z,54.50
2023-04-21T06:57:17.460Z,54.87
2023-04-21T07:01:16.173Z,54.57
2023-04-21T07:02:47.920Z,54.80
2023-04-21T07:04:19.607Z,54.93
2023-04-21T07:05:51.253Z,54.87
2023-04-21T07:07:23.271Z,54.90
2023-04-21T07:08:54.779Z,54.88
2023-04-21T07:10:26.925Z,54.81
2023-04-21T07:11:58.973Z,55.00
2023-04-21T07:13:30.574Z,54.90
2023-04-21T07:15:02.280Z,54.87
2023-04-21T07:16:33.759Z,54.74
2023-04-21T07:18:05.568Z,54.78
2023-04-21T07:19:37.407Z,55.20
2023-04-21T07:21:08.981Z,54.80
2023-04-21T07:22:40.552Z,55.04
2023-04-21T07:24:12.072Z,55.21
2023-04-21T07:25:43.994Z,54.99
2023-04-21T07:27:15.786Z,54.96
2023-04-21T07:28:47.576Z,54.87
2023-04-21T07:30:19.033Z,54.70
2023-04-21T07:31:51.862Z,54.76
2023-04-21T07:33:23.577Z,54.20
2023-04-21T07:34:55.128Z,54.34
2023-04-21T07:36:29.965Z,54.54
2023-04-21T07:38:02.586Z,54.44
2023-04-21T07:39:34.175Z,54.31
2023-04-21T07:41:06.220Z,54.18
2023-04-21T07:42:37.914Z,54.09
2023-04-21T07:44:09.453Z,54.23
2023-04-21T07:45:40.923Z,54.27
2023-04-21T07:47:12.767Z,54.34
2023-04-21T07:48:45.653Z,54.08
2023-04-21T07:50:17.234Z,54.31
2023-04-21T07:51:48.703Z,53.91
2023-04-21T07:53:20.358Z,53.63
2023-04-21T07:54:51.977Z,53.97
2023-04-21T07:56:23.509Z,53.76
2023-04-21T07:57:55.234Z,53.61
2023-04-21T07:59:26.731Z,53.70
2023-04-21T08:00:58.306Z,53.82
2023-04-21T08:02:29.922Z,53.68
2023-04-21T08:04:01.619Z,53.36
2023-04-21T08:05:36.629Z,53.56
2023-04-21T08:07:10.143Z,53.23
2023-04-21T08:08:41.884Z,53.45
2023-04-21T08:10:13.584Z,53.12
2023-04-21T08:11:45.232Z,53.19
2023-04-21T08:13:17.196Z,53.06
2023-04-21T08:14:49.317Z,53.08
2023-04-21T08:16:20.924Z,53.18
2023-04-21T08:17:52.544Z,53.28
2023-04-21T08:19:24.157Z,53.48
2023-04-21T08:20:58.173Z,53.03
2023-04-21T08:22:29.840Z,52.77
2023-04-21T08:24:01.542Z,52.91
2023-04-21T08:25:33.105Z,53.02
2023-04-21T08:27:04.631Z,52.71
2023-04-21T08:28:36.202Z,52.74
2023-04-21T08:30:08.170Z,52.78
2023-04-21T08:31:40.510Z,52.67
2023-04-21T08:33:13.966Z,52.73
2023-04-21T08:34:45.692Z,52.71
2023-04-21T08:36:26.394Z,52.86
2023-04-21T08:38:00.951Z,52.66
2023-04-21T08:39:32.618Z,52.43
2023-04-21T08:41:04.493Z,52.17
2023-04-21T08:42:37.079Z,52.01
2023-04-21T08:44:09.008Z,52.03
2023-04-21T08:45:41.187Z,51.95
2023-04-21T08:47:13.474Z,51.57
2023-04-21T08:48:45.053Z,51.52
2023-04-21T08:50:16.757Z,51.31
2023-04-21T08:51:48.385Z,51.17
2023-04-21T08:53:19.998Z,51.11
2023-04-21T08:54:53.434Z,50.95
2023-04-21T08:56:25.540Z,50.59
2023-04-21T08:57:57.362Z,50.45
2023-04-21T08:59:29.266Z,50.50
2023-04-21T09:01:00.848Z,50.12
2023-04-21T09:02:32.714Z,49.99
2023-04-21T09:04:17.496Z,49.79
2023-04-21T09:05:57.585Z,49.74
2023-04-21T09:07:33.231Z,49.61
2023-04-21T09:09:05.688Z,49.73
2023-04-21T09:10:48.579Z,49.76
2023-04-21T09:12:20.150Z,49.51
2023-04-21T09:13:56.885Z,49.38
2023-04-21T09:15:28.461Z,49.13
2023-04-21T09:17:01.164Z,48.98
2023-04-21T09:18:37.014Z,48.87
2023-04-21T09:20:18.170Z,48.71
2023-04-21T09:21:49.632Z,48.68
2023-04-21T09:23:22.052Z,48.69
2023-04-21T09:24:57.610Z,48.74
2023-04-21T09:26:29.612Z,48.26
2023-04-21T09:28:01.184Z,48.54
2023-04-21T09:29:32.977Z,48.17
2023-04-21T09:31:04.645Z,48.36
2023-04-21T09:32:36.864Z,48.39
2023-04-21T09:34:17.710Z,48.45
2023-04-21T09:35:49.926Z,48.22
2023-04-21T09:37:24.606Z,48.18
2023-04-21T09:39:24.310Z,48.14
2023-04-21T09:41:00.073Z,47.67
2023-04-21T09:42:38.960Z,47.54
2023-04-21T09:44:11.867Z,47.61
2023-04-21T09:45:43.599Z,47.24
2023-04-21T09:47:15.638Z,47.20
2023-04-21T09:48:47.432Z,46.95
2023-04-21T09:50:26.712Z,46.83
2023-04-21T09:52:19.133Z,46.62
2023-04-21T09:53:51.982Z,46.48
2023-04-21T09:55:27.063Z,46.46
2023-04-21T09:56:59.305Z,46.32
2023-04-21T09:58:32.090Z,46.27
2023-04-21T10:00:12.230Z,46.34
2023-04-21T10:01:43.809Z,46.52
2023-04-21T10:03:15.641Z,46.38
2023-04-21T10:04:47.575Z,46.38
2023-04-21T10:06:19.537Z,46.13
2023-04-21T10:07:51.282Z,46.09
2023-04-21T10:09:23.059Z,46.06
2023-04-21T10:10:54.678Z,46.23
2023-04-21T10:12:27.248Z,45.79
2023-04-21T10:13:58.888Z,45.63
2023-04-21T10:15:31.751Z,45.41
2023-04-21T10:17:07.030Z,45.35
2023-04-21T10:18:39.294Z,45.33
2023-04-21T10:20:11.037Z,45.22
2023-04-21T10:21:42.501Z,45.13
2023-04-21T10:23:25.783Z,45.21
2023-04-21T10:24:57.792Z,45.14
2023-04-21T10:26:35.699Z,45.05
2023-04-21T10:28:07.166Z,44.91
2023-04-21T10:29:55.385Z,45.06
2023-04-21T10:31:33.289Z,45.03
2023-04-21T10:33:05.584Z,44.97
2023-04-21T10:34:41.594Z,44.94
2023-04-21T10:36:14.242Z,45.13
2023-04-21T10:37:45.764Z,45.00
2023-04-21T10:39:26.486Z,45.04
2023-04-21T10:41:09.384Z,44.93
2023-04-21T10:42:40.974Z,44.82
2023-04-21T10:44:13.131Z,45.07
2023-04-21T10:45:44.660Z,44.97
2023-04-21T10:47:16.853Z,44.95
2023-04-21T10:48:54.484Z,45.05
2023-04-21T10:50:29.918Z,45.09
2023-04-21T10:52:02.785Z,45.13
2023-04-21T10:53:41.160Z,44.96
2023-04-21T10:55:15.800Z,44.86
2023-04-21T10:56:47.482Z,44.81
2023-04-21T10:58:19.074Z,44.75
2023-04-21T10:59:50.958Z,44.57
2023-04-21T11:01:22.533Z,44.63
2023-04-21T11:03:03.797Z,44.47
2023-04-21T11:04:35.786Z,44.56
2023-04-21T11:06:18.174Z,44.49
2023-04-21T11:07:49.667Z,44.58
2023-04-21T11:09:21.191Z,44.40
2023-04-21T11:10:54.596Z,44.31
2023-04-21T11:12:32.850Z,44.24
2023-04-21T11:14:04.463Z,44.21
2023-04-21T11:15:36.712Z,44.27
2023-04-21T11:17:11.745Z,44.21
2023-04-21T11:18:44.001Z,44.16
2023-04-21T11:20:15.999Z,43.76
2023-04-21T11:21:51.637Z,43.61
2023-04-21T11:23:23.180Z,43.77
2023-04-21T11:24:55.764Z,43.71
2023-04-21T11:26:33.780Z,43.52
2023-04-21T11:28:06.632Z,43.11
2023-04-21T11:29:39.196Z,42.84
2023-04-21T11:31:10.921Z,42.83
2023-04-21T11:32:42.828Z,42.73
2023-04-21T11:34:15.793Z,42.48
2023-04-21T11:35:47.447Z,42.59
2023-04-21T11:37:23.722Z,42.04
2023-04-21T11:38:55.477Z,42.20
2023-04-21T11:40:27.063Z,41.97
2023-04-21T11:41:58.600Z,42.07
2023-04-21T11:43:30.066Z,42.21
2023-04-21T11:45:01.566Z,42.04
2023-04-21T11:46:33.682Z,42.37
2023-04-21T11:48:15.779Z,42.39
2023-04-21T11:49:47.943Z,42.37
2023-04-21T11:51:22.178Z,42.44
2023-04-21T11:52:53.955Z,42.91
2023-04-21T11:54:25.666Z,42.90
2023-04-21T11:55:58.047Z,43.01
2023-04-21T11:57:30.289Z,43.04
2023-04-21T11:59:02.332Z,43.41
2023-04-21T12:00:33.828Z,43.46
2023-04-21T12:02:05.600Z,43.71
2023-04-21T12:03:37.330Z,43.91
2023-04-21T12:05:09.458Z,44.01
2023-04-21T12:06:41.305Z,44.33
2023-04-21T12:08:16.182Z,44.14
2023-04-21T12:09:51.220Z,44.41
2023-04-21T12:11:23.847Z,44.35
2023-04-21T12:12:56.369Z,44.44
2023-04-21T12:14:27.876Z,44.43
2023-04-21T12:16:02.399Z,44.33
2023-04-21T12:17:38.491Z,44.59
2023-04-21T12:19:13.115Z,44.55
2023-04-21T12:20:51.426Z,44.37
2023-04-21T12:22:23.729Z,44.27
2023-04-21T12:23:55.378Z,43.84
2023-04-21T12:25:26.847Z,43.92
2023-04-21T12:26:58.424Z,43.79
2023-04-21T12:28:29.928Z,43.91
2023-04-21T12:30:01.730Z,43.65
2023-04-21T12:31:33.924Z,43.70
2023-04-21T12:33:05.620Z,43.67
2023-04-21T12:34:37.363Z,43.64
2023-04-21T12:36:08.912Z,43.51
2023-04-21T12:37:40.711Z,43.54
2023-04-21T12:39:13.545Z,43.45
2023-04-21T12:40:45.132Z,43.55
2023-04-21T12:42:16.771Z,43.60
2023-04-21T12:43:48.410Z,43.78
2023-04-21T12:45:20.020Z,43.83
2023-04-21T12:46:52.161Z,43.94
2023-04-21T12:48:24.363Z,43.60
2023-04-21T12:49:56.552Z,43.62
2023-04-21T12:51:28.069Z,43.55
2023-04-21T12:52:59.825Z,43.65
2023-04-21T12:54:31.848Z,43.68
2023-04-21T12:56:05.216Z,43.66
2023-04-21T12:57:37.279Z,43.63
2023-04-21T12:59:10.494Z,43.59
2023-04-21T13:00:42.862Z,43.60
2023-04-21T13:02:14.468Z,43.73
2023-04-21T13:03:46.400Z,43.66
2023-04-21T13:05:18.047Z,43.60
2023-04-21T13:06:49.577Z,43.75
2023-04-21T13:08:24.235Z,43.66
2023-04-21T13:09:56.052Z,43.56
2023-04-21T13:11:27.768Z,43.54
2023-04-21T13:12:59.371Z,43.31
2023-04-21T13:14:31.191Z,43.30
2023-04-21T13:16:02.898Z,43.25
2023-04-21T13:17:34.556Z,43.06
2023-04-21T13:19:06.497Z,43.11
2023-04-21T13:20:38.122Z,42.80
2023-04-21T13:22:09.617Z,42.93
2023-04-21T13:23:41.484Z,42.67
2023-04-21T13:25:13.092Z,42.44
2023-04-21T13:26:44.924Z,42.37
2023-04-21T13:28:17.758Z,42.28
2023-04-21T13:29:49.458Z,42.31
2023-04-21T13:31:21.527Z,42.51
2023-04-21T13:32:53.085Z,42.53
2023-04-21T13:34:24.757Z,42.50
2023-04-21T13:35:56.386Z,42.25
2023-04-21T13:37:28.304Z,42.12
2023-04-21T13:39:00.825Z,42.07
2023-04-21T13:40:32.375Z,41.98
2023-04-21T13:42:04.135Z,41.69
2023-04-21T13:43:35.852Z,41.56
2023-04-21T13:45:07.771Z,41.59
2023-04-21T13:46:39.337Z,41.52
2023-04-21T13:48:11.548Z,41.33
2023-04-21T13:49:43.534Z,41.40
2023-04-21T13:51:15.070Z,41.23
2023-04-21T13:52:47.082Z,41.23
2023-04-21T13:54:18.665Z,41.29
2023-04-21T13:55:50.736Z,41.06
2023-04-21T13:57:22.372Z,41.08
2023-04-21T13:58:55.286Z,40.71
2023-04-21T14:00:27.331Z,40.51
2023-04-21T14:01:58.977Z,40.48
2023-04-21T14:03:30.963Z,40.16
2023-04-21T14:05:03.136Z,40.51
2023-04-21T14:06:34.824Z,40.35
2023-04-21T14:08:06.395Z,40.30
2023-04-21T14:09:37.946Z,40.13
2023-04-21T14:11:09.463Z,39.85
2023-04-21T14:12:40.985Z,39.64
2023-04-21T14:14:15.264Z,39.65
2023-04-21T14:15:48.470Z,39.45
2023-04-21T14:17:19.952Z,39.17
2023-04-21T14:18:51.881Z,38.97
2023-04-21T14:20:23.466Z,39.01
2023-04-21T14:21:55.135Z,39.19
2023-04-21T14:23:26.677Z,39.06
2023-04-21T14:24:58.587Z,38.88
2023-04-21T14:26:30.284Z,39.18
2023-04-21T14:28:02.083Z,38.99
2023-04-21T14:29:33.942Z,38.88
2023-04-21T14:31:05.831Z,38.71
2023-04-21T14:32:37.995Z,38.69
2023-04-21T14:34:09.682Z,38.98
2023-04-21T14:35:42.200Z,38.51
2023-04-21T14:37:14.261Z,38.64
2023-04-21T14:38:45.868Z,38.57
2023-04-21T14:40:17.950Z,38.69
2023-04-21T14:41:49.421Z,38.56
2023-04-21T14:43:21.378Z,38.37
2023-04-21T14:44:52.912Z,38.23
2023-04-21T14:46:24.433Z,37.87
2023-04-21T14:47:56.069Z,37.80
2023-04-21T14:49:28.184Z,37.76
2023-04-21T14:50:59.989Z,37.62
2023-04-21T14:52:31.967Z,37.48
2023-04-21T14:54:03.580Z,37.12
2023-04-21T14:55:35.070Z,37.13
2023-04-21T14:57:19.927Z,37.01
2023-04-21T14:58:52.703Z,37.03
2023-04-21T15:00:24.483Z,36.81
2023-04-21T15:01:56.389Z,36.83
2023-04-21T15:03:28.158Z,36.58
2023-04-21T15:04:59.797Z,36.53
2023-04-21T15:06:31.742Z,36.29
2023-04-21T15:08:03.302Z,36.16
2023-04-21T15:09:36.299Z,36.03
2023-04-21T15:11:08.259Z,36.05
2023-04-21T15:12:41.302Z,36.06
2023-04-21T15:14:13.202Z,35.91
2023-04-21T15:15:45.658Z,35.94
2023-04-21T15:17:17.187Z,36.03
2023-04-21T15:18:48.766Z,35.93
2023-04-21T15:20:29.491Z,35.95
2023-04-21T15:22:08.409Z,35.90
2023-04-21T15:23:40.363Z,35.88
2023-04-21T15:25:11.939Z,35.88
2023-04-21T15:26:43.727Z,35.87
2023-04-21T15:28:15.370Z,35.93
2023-04-21T15:29:46.915Z,35.90
2023-04-21T15:31:18.889Z,35.99
2023-04-21T15:32:50.535Z,35.94
2023-04-21T15:34:22.208Z,35.89
2023-04-21T15:35:53.974Z,35.83
2023-04-21T15:37:25.999Z,35.88
2023-04-21T15:38:57.889Z,36.02
2023-04-21T15:40:29.745Z,35.91
2023-04-21T15:42:01.922Z,36.08
2023-04-21T15:43:33.709Z,36.13
2023-04-21T15:45:05.489Z,36.13
2023-04-21T15:46:37.198Z,36.18
2023-04-21T15:59:58.930Z,36.96
2023-04-21T16:01:30.556Z,37.08
2023-04-21T16:03:02.349Z,37.36
2023-04-21T16:04:34.345Z,37.33
2023-04-21T16:06:06.737Z,37.18
2023-04-21T16:07:38.384Z,37.32
2023-04-21T16:09:11.019Z,37.25
2023-04-21T16:10:42.715Z,37.27
2023-04-21T16:12:14.357Z,36.97
2023-04-21T16:13:46.587Z,37.21
2023-04-21T16:15:24.264Z,37.22
2023-04-21T16:16:56.713Z,37.13
2023-04-21T16:18:28.482Z,37.24
2023-04-21T16:20:00.593Z,37.30
2023-04-21T16:21:32.168Z,37.07
2023-04-21T16:23:04.913Z,37.53
2023-04-21T16:24:36.824Z,37.31
2023-04-21T16:26:09.294Z,37.26
2023-04-21T16:27:40.926Z,37.30
2023-04-21T16:29:12.409Z,37.56
2023-04-21T16:30:44.135Z,37.61
2023-04-21T16:32:15.719Z,37.56
2023-04-21T16:33:47.387Z,37.62
2023-04-21T16:35:19.031Z,37.79
2023-04-21T16:36:51.074Z,37.89
2023-04-21T16:38:23.302Z,37.89
2023-04-21T16:39:55.063Z,37.88
2023-04-21T16:41:26.925Z,37.86
2023-04-21T16:42:58.606Z,37.92
2023-04-21T16:44:30.290Z,37.90
2023-04-21T16:46:02.185Z,37.93
2023-04-21T16:47:40.433Z,37.88
2023-04-21T16:49:14.031Z,37.82
2023-04-21T16:50:45.688Z,37.95
2023-04-21T16:52:17.268Z,37.87
2023-04-21T16:53:48.859Z,37.82
2023-04-21T16:55:20.398Z,37.71
2023-04-21T16:56:51.954Z,37.81
2023-04-21T16:58:24.640Z,37.81
2023-04-21T16:59:56.292Z,38.02
2023-04-21T17:01:27.933Z,37.93
2023-04-21T17:02:59.693Z,37.96
2023-04-21T17:04:31.537Z,38.09
2023-04-21T17:06:05.116Z,38.17
2023-04-21T17:07:36.735Z,38.26
2023-04-21T17:09:08.709Z,38.55
2023-04-21T17:10:40.206Z,38.60
2023-04-21T17:12:12.310Z,38.71
2023-04-21T17:13:44.052Z,39.02
2023-04-21T17:15:16.192Z,38.82
2023-04-21T17:16:47.793Z,38.92
2023-04-21T17:18:19.413Z,38.75
2023-04-21T17:19:52.492Z,38.76
2023-04-21T17:21:24.123Z,38.73
2023-04-21T17:22:55.831Z,38.71
2023-04-21T17:24:31.241Z,38.69
2023-04-21T17:26:12.420Z,38.73
2023-04-21T17:27:44.606Z,38.64
2023-04-21T17:29:16.125Z,38.83
2023-04-21T17:30:47.697Z,38.82
2023-04-21T17:32:19.849Z,38.89
2023-04-21T17:33:53.419Z,38.88
2023-04-21T17:35:25.006Z,39.02
2023-04-21T17:36:56.792Z,39.26
2023-04-21T17:38:28.914Z,38.84
2023-04-21T17:40:02.844Z,38.96
2023-04-21T17:41:34.881Z,39.20
2023-04-21T17:43:06.482Z,38.99
2023-04-21T17:44:40.114Z,39.00
2023-04-21T17:46:12.446Z,38.89
2023-04-21T17:47:44.015Z,39.03
2023-04-21T17:49:17.457Z,38.92
2023-04-21T17:50:49.096Z,39.12
2023-04-21T17:52:20.705Z,38.94
2023-04-21T17:53:52.772Z,39.47
2023-04-21T17:55:24.357Z,39.19
2023-04-21T17:56:56.498Z,39.47
2023-04-21T17:58:28.157Z,39.28
2023-04-21T17:59:59.726Z,39.29
2023-04-21T18:01:31.340Z,39.55
2023-04-21T18:03:03.397Z,39.70
2023-04-21T18:04:35.245Z,39.96
2023-04-21T18:06:07.527Z,39.56
2023-04-21T18:07:40.385Z,39.80
2023-04-21T18:09:12.476Z,39.57
2023-04-21T18:10:44.387Z,39.66
2023-04-21T18:12:16.434Z,39.95
2023-04-21T18:13:47.968Z,40.16
2023-04-21T18:15:19.719Z,39.97
2023-04-21T18:16:51.607Z,39.90
2023-04-21T18:18:23.311Z,39.64
2023-04-21T18:19:54.847Z,39.98
2023-04-21T18:21:27.559Z,39.58
2023-04-21T18:22:59.158Z,39.81
2023-04-21T18:24:30.872Z,39.97
2023-04-21T18:26:02.865Z,40.09
2023-04-21T18:27:34.493Z,40.17
2023-04-21T18:29:06.599Z,40.10
2023-04-21T18:30:39.075Z,40.12
2023-04-21T18:32:10.690Z,40.62
2023-04-21T18:33:42.246Z,40.29
2023-04-21T18:35:13.793Z,40.45
2023-04-21T18:36:45.369Z,40.63
2023-04-21T18:38:16.867Z,40.82
2023-04-21T18:39:48.890Z,40.87
2023-04-21T18:41:20.565Z,40.78
2023-04-21T18:42:52.347Z,40.92
2023-04-21T18:44:23.944Z,40.75
2023-04-21T18:45:56.033Z,41.02
2023-04-21T18:47:27.629Z,40.81
2023-04-21T18:48:59.346Z,41.09
2023-04-21T18:50:32.529Z,41.31
2023-04-21T18:52:04.074Z,41.12
2023-04-21T18:53:36.058Z,41.10
2023-04-21T18:55:07.884Z,41.12
2023-04-21T18:56:39.524Z,41.15
2023-04-21T18:58:12.137Z,41.55
2023-04-21T18:59:44.168Z,41.67
2023-04-21T19:01:16.004Z,41.41
2023-04-21T19:02:51.803Z,41.69
2023-04-21T19:04:23.713Z,41.77
2023-04-21T19:05:55.389Z,41.58
2023-04-21T19:07:27.269Z,41.60
2023-04-21T19:08:58.888Z,41.74
2023-04-21T19:10:31.485Z,42.07
2023-04-21T19:12:03.849Z,41.99
2023-04-21T19:13:35.403Z,41.95
2023-04-21T19:15:07.345Z,42.04
2023-04-21T19:16:39.098Z,41.98
2023-04-21T19:18:10.989Z,42.08
2023-04-21T19:19:42.643Z,41.98
2023-04-21T19:21:14.406Z,41.95
2023-04-21T19:22:46.578Z,41.95
2023-04-21T19:24:18.361Z,42.22
2023-04-21T19:25:54.748Z,41.89
2023-04-21T19:27:26.345Z,42.05
2023-04-21T19:28:58.242Z,42.39
2023-04-21T19:30:29.870Z,42.03
2023-04-21T19:32:02.422Z,42.27
2023-04-21T19:33:34.164Z,42.36
2023-04-21T19:35:05.898Z,42.31
2023-04-21T19:36:37.693Z,42.38
2023-04-21T19:38:10.106Z,42.48
2023-04-21T19:39:42.105Z,42.21
2023-04-21T19:41:13.855Z,42.34
2023-04-21T19:42:45.859Z,42.44
2023-04-21T19:44:17.411Z,42.34
2023-04-21T19:45:49.151Z,42.39
2023-04-21T19:47:21.350Z,42.06
2023-04-21T19:48:53.021Z,42.19
2023-04-21T19:50:24.616Z,42.37
2023-04-21T19:51:56.228Z,42.50
2023-04-21T19:53:28.442Z,42.49
2023-04-21T19:55:00.059Z,42.67
2023-04-21T19:56:32.745Z,42.48
2023-04-21T19:58:04.238Z,42.78
2023-04-21T19:59:36.132Z,42.48
2023-04-21T20:01:08.101Z,42.69
2023-04-21T20:02:40.002Z,42.41
2023-04-21T20:04:12.222Z,42.37